Isle, MN (56342)

11:19 AM CST on November 28, 2014 (GMT -0600)
10 miles north of Mora MN | Change Station
CLOSE
Current Station
Personal Weather Station
Location: Mora, MN
Elevation: 1148 ft
Nearby Weather Stations

Elev 1148 ft 46.02 °N, 93.33 °W | Updated 3 seconds ago

Mostly Cloudy
Mostly Cloudy
14.6 °F
Feels Like 15 °F
N
2.0
Wind Variable Wind from ESE
Gusts 7.0 mph

Today
High -- | Low -- °F
--% Chance of Precip.
Yesterday
High -- | Low -- °F
Precip. -- in
7:32 AM 4:31 PM
Waxing Crescent, 42% visible
Pressure 29.92 in
Visibility 10.0 miles
Clouds Mostly Cloudy 4700 ft
Windchill 15 °F
Dew Point 10 °F
Humidity 81%
Rainfall 0.00 in
Snow Depth Not available.
UV 1 out of 12
Pollen .10 out of 12
Air Quality Not available.
Flu Activity Not available.
METAR KAIT 281714Z AUTO 14005KT 10SM -RA BKN047 M09/M13 A2992 RMK AO2

More Conditions Fewer Conditions

Pressure 29.92 in
Visibility 10.0 miles
Clouds Mostly Cloudy 4700 ft
Windchill 15 °F
Dew Point 10 °F
Humidity 81%
Rainfall 0.00 in
Snow Depth Not available.
UV 1 out of 12
Pollen .10 out of 12
Air Quality Not available.
Flu Activity Not available.
METAR KAIT 281714Z AUTO 14005KT 10SM -RA BKN047 M09/M13 A2992 RMK AO2

More Conditions Fewer Conditions

10-Day Weather Forecast

Almanac

Astronomy

Nov. 28, 2014 Rise Set
Actual Time
Civil Twilight
Nautical Twilight
Astronomical Twilight
Moon
Length of Visible Light
Length of Day
Tomorrow will be .
, % of the Moon is Illuminated

Today's Extremes

State Highs State Lows

Community

WunderPhotos

Upload Photos

1,774,239 photos uploaded!

WunderBlogs® & News

Nearby

Air Quality

  Air Quality AQ Index Pollutant
Not available.

Snow Depth

Station Depth Elevation

Earthquake Activity

City Distance Mag. Time & Date
Minimum magnitude displayed is 2.5.

Coastal Water Temperatures

Place Temperature

Nearby Weather Stations